sensor_id;sensor_type;location;lat;lon;timestamp;temperature;humidity
51637;DHT22;37713;53.254;6.460;2022-11-24T00:02:09;6.50;99.90
51637;DHT22;37713;53.254;6.460;2022-11-24T00:04:34;6.50;99.90
51637;DHT22;37713;53.254;6.460;2022-11-24T00:07:00;6.40;99.90
51637;DHT22;37713;53.254;6.460;2022-11-24T00:09:26;6.60;99.90
51637;DHT22;37713;53.254;6.460;2022-11-24T00:11:51;6.70;99.90
51637;DHT22;37713;53.254;6.460;2022-11-24T00:14:17;6.50;99.90
51637;DHT22;37713;53.254;6.460;2022-11-24T00:16:43;6.50;99.90
51637;DHT22;37713;53.254;6.460;2022-11-24T00:19:09;6.40;99.90
51637;DHT22;37713;53.254;6.460;2022-11-24T00:21:36;6.50;99.90
51637;DHT22;37713;53.254;6.460;2022-11-24T00:24:02;6.60;99.90
51637;DHT22;37713;53.254;6.460;2022-11-24T00:26:30;6.50;99.90
51637;DHT22;37713;53.254;6.460;2022-11-24T00:28:58;6.50;99.90
51637;DHT22;37713;53.254;6.460;2022-11-24T00:31:33;6.40;99.90
51637;DHT22;37713;53.254;6.460;2022-11-24T00:34:05;6.30;99.90
51637;DHT22;37713;53.254;6.460;2022-11-24T00:36:33;6.30;99.90
51637;DHT22;37713;53.254;6.460;2022-11-24T00:39:01;6.50;99.90
51637;DHT22;37713;53.254;6.460;2022-11-24T00:41:28;6.30;99.90
51637;DHT22;37713;53.254;6.460;2022-11-24T00:43:55;6.30;99.90
51637;DHT22;37713;53.254;6.460;2022-11-24T00:46:21;6.50;99.90
51637;DHT22;37713;53.254;6.460;2022-11-24T00:48:47;6.50;99.90
51637;DHT22;37713;53.254;6.460;2022-11-24T00:51:15;6.30;99.90
51637;DHT22;37713;53.254;6.460;2022-11-24T00:53:41;6.50;99.90
51637;DHT22;37713;53.254;6.460;2022-11-24T00:56:07;6.40;99.90
51637;DHT22;37713;53.254;6.460;2022-11-24T00:58:34;6.20;99.90
51637;DHT22;37713;53.254;6.460;2022-11-24T01:01:09;6.40;99.90
51637;DHT22;37713;53.254;6.460;2022-11-24T01:03:35;6.30;99.90
51637;DHT22;37713;53.254;6.460;2022-11-24T01:06:10;6.30;99.90
51637;DHT22;37713;53.254;6.460;2022-11-24T01:08:38;6.50;99.90
51637;DHT22;37713;53.254;6.460;2022-11-24T01:11:08;6.50;99.90
51637;DHT22;37713;53.254;6.460;2022-11-24T01:13:34;6.50;99.90
51637;DHT22;37713;53.254;6.460;2022-11-24T01:16:00;6.30;99.90
51637;DHT22;37713;53.254;6.460;2022-11-24T01:18:26;6.50;99.90
51637;DHT22;37713;53.254;6.460;2022-11-24T01:20:51;6.40;99.90
51637;DHT22;37713;53.254;6.460;2022-11-24T01:23:17;6.30;99.90
51637;DHT22;37713;53.254;6.460;2022-11-24T01:25:43;6.40;99.90
51637;DHT22;37713;53.254;6.460;2022-11-24T01:28:08;6.30;99.90
51637;DHT22;37713;53.254;6.460;2022-11-24T01:30:34;6.40;99.90
51637;DHT22;37713;53.254;6.460;2022-11-24T01:33:00;6.30;99.90
51637;DHT22;37713;53.254;6.460;2022-11-24T01:35:26;6.40;99.90
51637;DHT22;37713;53.254;6.460;2022-11-24T01:37:52;6.30;99.90
51637;DHT22;37713;53.254;6.460;2022-11-24T01:40:18;6.40;99.90
51637;DHT22;37713;53.254;6.460;2022-11-24T01:42:51;6.40;99.90
51637;DHT22;37713;53.254;6.460;2022-11-24T01:45:31;6.40;99.90
51637;DHT22;37713;53.254;6.460;2022-11-24T01:47:59;6.30;99.90
51637;DHT22;37713;53.254;6.460;2022-11-24T01:50:25;6.50;99.90
51637;DHT22;37713;53.254;6.460;2022-11-24T01:52:53;6.40;99.90
51637;DHT22;37713;53.254;6.460;2022-11-24T01:55:24;6.60;99.90
51637;DHT22;37713;53.254;6.460;2022-11-24T01:58:14;6.50;99.90
51637;DHT22;37713;53.254;6.460;2022-11-24T02:00:43;6.50;99.90
51637;DHT22;37713;53.254;6.460;2022-11-24T02:03:14;6.70;99.90
51637;DHT22;37713;53.254;6.460;2022-11-24T02:05:45;6.60;99.90
51637;DHT22;37713;53.254;6.460;2022-11-24T02:08:21;6.60;99.90
51637;DHT22;37713;53.254;6.460;2022-11-24T02:10:49;6.60;99.90
51637;DHT22;37713;53.254;6.460;2022-11-24T02:13:15;6.90;99.90
51637;DHT22;37713;53.254;6.460;2022-11-24T02:15:42;6.80;99.90
51637;DHT22;37713;53.254;6.460;2022-11-24T02:18:07;6.70;99.90
51637;DHT22;37713;53.254;6.460;2022-11-24T02:20:33;6.80;99.90
51637;DHT22;37713;53.254;6.460;2022-11-24T02:23:14;6.80;99.90
51637;DHT22;37713;53.254;6.460;2022-11-24T02:25:56;6.80;99.90
51637;DHT22;37713;53.254;6.460;2022-11-24T02:28:26;6.80;99.90
51637;DHT22;37713;53.254;6.460;2022-11-24T02:30:54;6.70;99.90
51637;DHT22;37713;53.254;6.460;2022-11-24T02:33:20;6.90;99.90
51637;DHT22;37713;53.254;6.460;2022-11-24T02:35:46;6.90;99.90
51637;DHT22;37713;53.254;6.460;2022-11-24T02:38:13;6.80;99.90
51637;DHT22;37713;53.254;6.460;2022-11-24T02:40:40;6.80;99.90
51637;DHT22;37713;53.254;6.460;2022-11-24T02:43:10;6.80;99.90
51637;DHT22;37713;53.254;6.460;2022-11-24T02:45:38;6.60;99.90
51637;DHT22;37713;53.254;6.460;2022-11-24T02:48:04;6.50;99.90
51637;DHT22;37713;53.254;6.460;2022-11-24T02:50:30;6.70;99.90
51637;DHT22;37713;53.254;6.460;2022-11-24T02:52:56;6.30;99.90
51637;DHT22;37713;53.254;6.460;2022-11-24T02:55:21;6.50;99.90
51637;DHT22;37713;53.254;6.460;2022-11-24T02:57:48;6.20;99.90
51637;DHT22;37713;53.254;6.460;2022-11-24T03:00:14;6.30;99.90
51637;DHT22;37713;53.254;6.460;2022-11-24T03:02:40;6.30;99.90
51637;DHT22;37713;53.254;6.460;2022-11-24T03:05:06;6.30;99.90
51637;DHT22;37713;53.254;6.460;2022-11-24T03:07:32;6.40;99.90
51637;DHT22;37713;53.254;6.460;2022-11-24T03:09:58;6.20;99.90
51637;DHT22;37713;53.254;6.460;2022-11-24T03:12:24;6.40;99.90
51637;DHT22;37713;53.254;6.460;2022-11-24T03:14:49;6.30;99.90
51637;DHT22;37713;53.254;6.460;2022-11-24T03:17:16;6.40;99.90
51637;DHT22;37713;53.254;6.460;2022-11-24T03:19:41;6.40;99.90
51637;DHT22;37713;53.254;6.460;2022-11-24T03:22:07;6.20;99.90
51637;DHT22;37713;53.254;6.460;2022-11-24T03:24:33;6.30;99.90
51637;DHT22;37713;53.254;6.460;2022-11-24T03:26:59;6.20;99.90
51637;DHT22;37713;53.254;6.460;2022-11-24T03:29:24;6.20;99.90
51637;DHT22;37713;53.254;6.460;2022-11-24T03:31:50;6.40;99.90
51637;DHT22;37713;53.254;6.460;2022-11-24T03:34:16;6.30;99.90
51637;DHT22;37713;53.254;6.460;2022-11-24T03:36:41;6.40;99.90
51637;DHT22;37713;53.254;6.460;2022-11-24T03:39:07;6.40;99.90
51637;DHT22;37713;53.254;6.460;2022-11-24T03:41:33;6.40;99.90
51637;DHT22;37713;53.254;6.460;2022-11-24T03:43:59;6.30;99.90
51637;DHT22;37713;53.254;6.460;2022-11-24T03:46:24;6.40;99.90
51637;DHT22;37713;53.254;6.460;2022-11-24T03:48:50;6.40;99.90
51637;DHT22;37713;53.254;6.460;2022-11-24T03:51:16;6.30;99.90
51637;DHT22;37713;53.254;6.460;2022-11-24T03:53:41;6.30;99.90
51637;DHT22;37713;53.254;6.460;2022-11-24T03:56:07;6.30;99.90
51637;DHT22;37713;53.254;6.460;2022-11-24T03:58:33;6.30;99.90
51637;DHT22;37713;53.254;6.460;2022-11-24T04:00:58;6.40;99.90
51637;DHT22;37713;53.254;6.460;2022-11-24T04:03:24;6.40;99.90
51637;DHT22;37713;53.254;6.460;2022-11-24T04:05:50;6.30;99.90
51637;DHT22;37713;53.254;6.460;2022-11-24T04:08:17;6.30;99.90
51637;DHT22;37713;53.254;6.460;2022-11-24T04:10:43;6.40;99.90
51637;DHT22;37713;53.254;6.460;2022-11-24T04:13:15;6.20;99.90
51637;DHT22;37713;53.254;6.460;2022-11-24T04:15:42;6.40;99.90
51637;DHT22;37713;53.254;6.460;2022-11-24T04:18:09;6.40;99.90
51637;DHT22;37713;53.254;6.460;2022-11-24T04:20:35;6.30;99.90
51637;DHT22;37713;53.254;6.460;2022-11-24T04:23:01;6.40;99.90
51637;DHT22;37713;53.254;6.460;2022-11-24T04:25:27;6.30;99.90
51637;DHT22;37713;53.254;6.460;2022-11-24T04:27:54;6.30;99.90
51637;DHT22;37713;53.254;6.460;2022-11-24T04:30:21;6.50;99.90
51637;DHT22;37713;53.254;6.460;2022-11-24T04:32:47;6.40;99.90
51637;DHT22;37713;53.254;6.460;2022-11-24T04:35:13;6.20;99.90
51637;DHT22;37713;53.254;6.460;2022-11-24T04:37:39;6.30;99.90
51637;DHT22;37713;53.254;6.460;2022-11-24T04:40:07;6.10;99.90
51637;DHT22;37713;53.254;6.460;2022-11-24T04:42:33;6.10;99.90
51637;DHT22;37713;53.254;6.460;2022-11-24T04:44:58;6.30;99.90
51637;DHT22;37713;53.254;6.460;2022-11-24T04:47:25;6.10;99.90
51637;DHT22;37713;53.254;6.460;2022-11-24T04:49:51;6.10;99.90
51637;DHT22;37713;53.254;6.460;2022-11-24T04:52:19;6.10;99.90
51637;DHT22;37713;53.254;6.460;2022-11-24T04:54:46;6.20;99.90
51637;DHT22;37713;53.254;6.460;2022-11-24T04:57:23;6.10;99.90
51637;DHT22;37713;53.254;6.460;2022-11-24T04:59:50;6.10;99.90
51637;DHT22;37713;53.254;6.460;2022-11-24T05:02:16;6.20;99.90
51637;DHT22;37713;53.254;6.460;2022-11-24T05:04:42;6.20;99.90
51637;DHT22;37713;53.254;6.460;2022-11-24T05:07:10;6.10;99.90
51637;DHT22;37713;53.254;6.460;2022-11-24T05:09:36;6.10;99.90
51637;DHT22;37713;53.254;6.460;2022-11-24T05:12:22;5.90;99.90
51637;DHT22;37713;53.254;6.460;2022-11-24T05:14:49;5.90;99.90
51637;DHT22;37713;53.254;6.460;2022-11-24T05:17:15;6.00;99.90
51637;DHT22;37713;53.254;6.460;2022-11-24T05:19:41;5.80;99.90
51637;DHT22;37713;53.254;6.460;2022-11-24T05:22:07;5.90;99.90
51637;DHT22;37713;53.254;6.460;2022-11-24T05:24:33;6.00;99.90
51637;DHT22;37713;53.254;6.460;2022-11-24T05:26:58;5.90;99.90
51637;DHT22;37713;53.254;6.460;2022-11-24T05:29:24;6.00;99.90
51637;DHT22;37713;53.254;6.460;2022-11-24T05:31:50;5.80;99.90
51637;DHT22;37713;53.254;6.460;2022-11-24T05:34:16;5.80;99.90
51637;DHT22;37713;53.254;6.460;2022-11-24T05:36:42;5.80;99.90
51637;DHT22;37713;53.254;6.460;2022-11-24T05:39:17;5.70;99.90
51637;DHT22;37713;53.254;6.460;2022-11-24T05:41:44;5.90;99.90
51637;DHT22;37713;53.254;6.460;2022-11-24T05:44:09;5.70;99.90
51637;DHT22;37713;53.254;6.460;2022-11-24T05:46:35;5.70;99.90
51637;DHT22;37713;53.254;6.460;2022-11-24T05:49:01;5.80;99.90
51637;DHT22;37713;53.254;6.460;2022-11-24T05:51:27;5.80;99.90
51637;DHT22;37713;53.254;6.460;2022-11-24T05:53:53;5.80;99.90
51637;DHT22;37713;53.254;6.460;2022-11-24T05:56:18;5.80;99.90
51637;DHT22;37713;53.254;6.460;2022-11-24T05:58:44;5.80;99.90
51637;DHT22;37713;53.254;6.460;2022-11-24T06:01:10;5.60;99.90
51637;DHT22;37713;53.254;6.460;2022-11-24T06:03:36;5.60;99.90
51637;DHT22;37713;53.254;6.460;2022-11-24T06:06:01;5.60;99.90
51637;DHT22;37713;53.254;6.460;2022-11-24T06:08:27;5.70;99.90
51637;DHT22;37713;53.254;6.460;2022-11-24T06:10:53;5.80;99.90
51637;DHT22;37713;53.254;6.460;2022-11-24T06:13:19;5.70;99.90
51637;DHT22;37713;53.254;6.460;2022-11-24T06:15:45;5.70;99.90
51637;DHT22;37713;53.254;6.460;2022-11-24T06:18:11;5.70;99.90
51637;DHT22;37713;53.254;6.460;2022-11-24T06:20:36;5.60;99.90
51637;DHT22;37713;53.254;6.460;2022-11-24T06:23:02;5.60;99.90
51637;DHT22;37713;53.254;6.460;2022-11-24T06:25:28;5.70;99.90
51637;DHT22;37713;53.254;6.460;2022-11-24T06:27:54;5.60;99.90
51637;DHT22;37713;53.254;6.460;2022-11-24T06:30:20;5.70;99.90
51637;DHT22;37713;53.254;6.460;2022-11-24T06:32:46;5.80;99.90
51637;DHT22;37713;53.254;6.460;2022-11-24T06:35:12;5.50;99.90
51637;DHT22;37713;53.254;6.460;2022-11-24T06:37:38;5.50;99.90
51637;DHT22;37713;53.254;6.460;2022-11-24T06:40:06;5.70;99.90
51637;DHT22;37713;53.254;6.460;2022-11-24T06:42:34;5.40;99.90
51637;DHT22;37713;53.254;6.460;2022-11-24T06:45:00;5.40;99.90
51637;DHT22;37713;53.254;6.460;2022-11-24T06:47:25;5.50;99.90
51637;DHT22;37713;53.254;6.460;2022-11-24T06:49:51;5.50;99.90
51637;DHT22;37713;53.254;6.460;2022-11-24T06:52:17;5.40;99.90
51637;DHT22;37713;53.254;6.460;2022-11-24T06:54:43;5.40;99.90
51637;DHT22;37713;53.254;6.460;2022-11-24T06:57:08;5.50;99.90
51637;DHT22;37713;53.254;6.460;2022-11-24T06:59:34;5.40;99.90
51637;DHT22;37713;53.254;6.460;2022-11-24T07:02:00;5.50;99.90
51637;DHT22;37713;53.254;6.460;2022-11-24T07:04:26;5.30;99.90
51637;DHT22;37713;53.254;6.460;2022-11-24T07:06:51;5.30;99.90
51637;DHT22;37713;53.254;6.460;2022-11-24T07:09:17;5.40;99.90
51637;DHT22;37713;53.254;6.460;2022-11-24T07:11:43;5.40;99.90
51637;DHT22;37713;53.254;6.460;2022-11-24T07:14:09;5.50;99.90
51637;DHT22;37713;53.254;6.460;2022-11-24T07:16:35;5.40;99.90
51637;DHT22;37713;53.254;6.460;2022-11-24T07:19:01;5.40;99.90
51637;DHT22;37713;53.254;6.460;2022-11-24T07:21:28;5.40;99.90
51637;DHT22;37713;53.254;6.460;2022-11-24T07:23:55;5.30;99.90
51637;DHT22;37713;53.254;6.460;2022-11-24T07:26:23;5.40;99.90
51637;DHT22;37713;53.254;6.460;2022-11-24T07:28:49;5.50;99.90
51637;DHT22;37713;53.254;6.460;2022-11-24T07:31:17;5.30;99.90
51637;DHT22;37713;53.254;6.460;2022-11-24T07:33:48;5.30;99.90
51637;DHT22;37713;53.254;6.460;2022-11-24T07:36:14;5.50;99.90
51637;DHT22;37713;53.254;6.460;2022-11-24T07:38:40;5.30;99.90
51637;DHT22;37713;53.254;6.460;2022-11-24T07:41:08;5.60;99.90
51637;DHT22;37713;53.254;6.460;2022-11-24T07:43:35;5.40;99.90
51637;DHT22;37713;53.254;6.460;2022-11-24T07:46:02;5.40;99.90
51637;DHT22;37713;53.254;6.460;2022-11-24T07:48:29;5.60;99.90
51637;DHT22;37713;53.254;6.460;2022-11-24T07:50:58;5.60;99.90
51637;DHT22;37713;53.254;6.460;2022-11-24T07:53:23;5.40;99.90
51637;DHT22;37713;53.254;6.460;2022-11-24T07:55:53;5.60;99.90
51637;DHT22;37713;53.254;6.460;2022-11-24T07:58:20;5.40;99.90
51637;DHT22;37713;53.254;6.460;2022-11-24T08:00:46;5.60;99.90
51637;DHT22;37713;53.254;6.460;2022-11-24T08:03:12;5.60;99.90
51637;DHT22;37713;53.254;6.460;2022-11-24T08:05:38;5.70;99.90
51637;DHT22;37713;53.254;6.460;2022-11-24T08:08:04;5.50;99.90
51637;DHT22;37713;53.254;6.460;2022-11-24T08:10:29;5.50;99.90
51637;DHT22;37713;53.254;6.460;2022-11-24T08:12:59;5.60;99.90
51637;DHT22;37713;53.254;6.460;2022-11-24T08:15:25;5.80;99.90
51637;DHT22;37713;53.254;6.460;2022-11-24T08:17:51;5.70;99.90
51637;DHT22;37713;53.254;6.460;2022-11-24T08:20:16;5.60;99.90
51637;DHT22;37713;53.254;6.460;2022-11-24T08:22:42;5.80;99.90
51637;DHT22;37713;53.254;6.460;2022-11-24T08:25:08;5.60;99.90
51637;DHT22;37713;53.254;6.460;2022-11-24T08:27:34;5.60;99.90
51637;DHT22;37713;53.254;6.460;2022-11-24T08:30:00;5.60;99.90
51637;DHT22;37713;53.254;6.460;2022-11-24T08:32:25;5.80;99.90
51637;DHT22;37713;53.254;6.460;2022-11-24T08:34:51;5.70;99.90
51637;DHT22;37713;53.254;6.460;2022-11-24T08:37:17;6.00;99.90
51637;DHT22;37713;53.254;6.460;2022-11-24T08:39:43;6.00;99.90
51637;DHT22;37713;53.254;6.460;2022-11-24T08:42:08;6.00;99.90
51637;DHT22;37713;53.254;6.460;2022-11-24T08:44:34;5.90;99.90
51637;DHT22;37713;53.254;6.460;2022-11-24T08:47:00;6.20;99.90
51637;DHT22;37713;53.254;6.460;2022-11-24T08:49:26;6.30;99.90
51637;DHT22;37713;53.254;6.460;2022-11-24T08:51:52;6.40;99.90
51637;DHT22;37713;53.254;6.460;2022-11-24T08:54:17;6.40;99.90
51637;DHT22;37713;53.254;6.460;2022-11-24T08:56:44;6.30;99.90
51637;DHT22;37713;53.254;6.460;2022-11-24T08:59:12;6.40;99.90
51637;DHT22;37713;53.254;6.460;2022-11-24T09:01:38;6.60;99.90
51637;DHT22;37713;53.254;6.460;2022-11-24T09:04:04;6.50;99.90
51637;DHT22;37713;53.254;6.460;2022-11-24T09:06:30;6.40;99.90
51637;DHT22;37713;53.254;6.460;2022-11-24T09:08:57;6.60;99.90
51637;DHT22;37713;53.254;6.460;2022-11-24T09:11:24;6.40;99.90
51637;DHT22;37713;53.254;6.460;2022-11-24T09:13:50;6.40;99.90
51637;DHT22;37713;53.254;6.460;2022-11-24T09:16:18;6.40;99.90
51637;DHT22;37713;53.254;6.460;2022-11-24T09:18:45;6.50;99.90
51637;DHT22;37713;53.254;6.460;2022-11-24T09:23:38;6.50;99.90
51637;DHT22;37713;53.254;6.460;2022-11-24T09:26:28;6.40;99.90
51637;DHT22;37713;53.254;6.460;2022-11-24T09:28:55;6.70;99.90
51637;DHT22;37713;53.254;6.460;2022-11-24T09:31:24;6.60;99.90
51637;DHT22;37713;53.254;6.460;2022-11-24T09:33:50;6.80;99.90
51637;DHT22;37713;53.254;6.460;2022-11-24T09:36:17;6.80;99.90
51637;DHT22;37713;53.254;6.460;2022-11-24T09:38:43;6.70;99.90
51637;DHT22;37713;53.254;6.460;2022-11-24T09:49:41;7.10;99.90
51637;DHT22;37713;53.254;6.460;2022-11-24T09:52:14;7.10;99.90
51637;DHT22;37713;53.254;6.460;2022-11-24T09:54:50;7.10;99.90
51637;DHT22;37713;53.254;6.460;2022-11-24T09:57:19;7.30;99.90
51637;DHT22;37713;53.254;6.460;2022-11-24T09:59:46;7.30;99.90
51637;DHT22;37713;53.254;6.460;2022-11-24T10:02:12;7.40;99.90
51637;DHT22;37713;53.254;6.460;2022-11-24T10:04:42;7.40;99.90
51637;DHT22;37713;53.254;6.460;2022-11-24T10:07:32;7.50;99.90
51637;DHT22;37713;53.254;6.460;2022-11-24T10:10:07;7.50;99.90
51637;DHT22;37713;53.254;6.460;2022-11-24T10:18:19;7.80;99.90
51637;DHT22;37713;53.254;6.460;2022-11-24T10:27:26;7.80;99.90
51637;DHT22;37713;53.254;6.460;2022-11-24T10:29:50;7.80;99.90
51637;DHT22;37713;53.254;6.460;2022-11-24T10:32:19;7.80;99.90
51637;DHT22;37713;53.254;6.460;2022-11-24T10:34:47;7.90;99.90
51637;DHT22;37713;53.254;6.460;2022-11-24T10:37:42;8.00;99.90
51637;DHT22;37713;53.254;6.460;2022-11-24T10:42:58;8.10;99.90
51637;DHT22;37713;53.254;6.460;2022-11-24T10:45:25;8.00;99.90
51637;DHT22;37713;53.254;6.460;2022-11-24T10:47:51;8.00;99.90
51637;DHT22;37713;53.254;6.460;2022-11-24T10:50:22;8.20;99.90
51637;DHT22;37713;53.254;6.460;2022-11-24T10:52:56;8.30;99.90
51637;DHT22;37713;53.254;6.460;2022-11-24T10:55:25;8.10;99.90
51637;DHT22;37713;53.254;6.460;2022-11-24T10:57:50;8.20;99.90
51637;DHT22;37713;53.254;6.460;2022-11-24T11:02:44;8.30;99.90
51637;DHT22;37713;53.254;6.460;2022-11-24T11:05:35;8.40;99.90
51637;DHT22;37713;53.254;6.460;2022-11-24T11:08:16;8.50;99.90
51637;DHT22;37713;53.254;6.460;2022-11-24T11:10:45;8.30;99.90
51637;DHT22;37713;53.254;6.460;2022-11-24T11:15:46;8.50;99.90
51637;DHT22;37713;53.254;6.460;2022-11-24T11:18:15;8.50;99.90
51637;DHT22;37713;53.254;6.460;2022-11-24T11:20:55;8.60;99.90
51637;DHT22;37713;53.254;6.460;2022-11-24T11:23:25;8.50;99.90
51637;DHT22;37713;53.254;6.460;2022-11-24T11:26:22;8.70;99.90
51637;DHT22;37713;53.254;6.460;2022-11-24T11:31:31;8.80;99.90
51637;DHT22;37713;53.254;6.460;2022-11-24T11:34:12;8.80;99.90
51637;DHT22;37713;53.254;6.460;2022-11-24T11:36:41;8.90;99.90
51637;DHT22;37713;53.254;6.460;2022-11-24T11:39:34;8.80;99.90
51637;DHT22;37713;53.254;6.460;2022-11-24T11:42:13;8.90;99.90
51637;DHT22;37713;53.254;6.460;2022-11-24T11:45:05;9.00;99.90
51637;DHT22;37713;53.254;6.460;2022-11-24T11:47:41;9.00;99.90
51637;DHT22;37713;53.254;6.460;2022-11-24T11:50:11;9.00;99.90
51637;DHT22;37713;53.254;6.460;2022-11-24T11:53:07;9.10;99.90
51637;DHT22;37713;53.254;6.460;2022-11-24T12:00:38;9.30;99.90
51637;DHT22;37713;53.254;6.460;2022-11-24T12:03:45;9.30;99.90
51637;DHT22;37713;53.254;6.460;2022-11-24T12:14:24;9.40;99.90
51637;DHT22;37713;53.254;6.460;2022-11-24T12:17:04;9.40;99.90
51637;DHT22;37713;53.254;6.460;2022-11-24T12:19:44;9.50;99.90
51637;DHT22;37713;53.254;6.460;2022-11-24T12:25:21;9.50;99.90
51637;DHT22;37713;53.254;6.460;2022-11-24T12:30:22;9.60;99.90
51637;DHT22;37713;53.254;6.460;2022-11-24T12:33:01;9.60;99.90
51637;DHT22;37713;53.254;6.460;2022-11-24T12:38:24;9.70;99.90
51637;DHT22;37713;53.254;6.460;2022-11-24T12:43:37;9.70;99.90
51637;DHT22;37713;53.254;6.460;2022-11-24T12:51:18;9.60;99.90
51637;DHT22;37713;53.254;6.460;2022-11-24T12:53:49;9.60;99.90
51637;DHT22;37713;53.254;6.460;2022-11-24T12:56:22;9.60;99.90
51637;DHT22;37713;53.254;6.460;2022-11-24T12:59:01;9.60;99.90
51637;DHT22;37713;53.254;6.460;2022-11-24T13:01:50;9.70;99.90
51637;DHT22;37713;53.254;6.460;2022-11-24T13:07:26;9.70;99.90
51637;DHT22;37713;53.254;6.460;2022-11-24T13:10:27;9.60;99.90
51637;DHT22;37713;53.254;6.460;2022-11-24T13:13:11;9.60;99.90
51637;DHT22;37713;53.254;6.460;2022-11-24T13:23:58;9.70;99.90
51637;DHT22;37713;53.254;6.460;2022-11-24T13:26:30;9.70;99.90
51637;DHT22;37713;53.254;6.460;2022-11-24T13:37:17;9.60;99.90
51637;DHT22;37713;53.254;6.460;2022-11-24T13:42:13;9.60;99.90
51637;DHT22;37713;53.254;6.460;2022-11-24T13:44:47;9.60;99.90
51637;DHT22;37713;53.254;6.460;2022-11-24T13:47:36;9.60;99.90
51637;DHT22;37713;53.254;6.460;2022-11-24T13:50:05;9.50;99.90
51637;DHT22;37713;53.254;6.460;2022-11-24T13:57:59;9.40;99.90
51637;DHT22;37713;53.254;6.460;2022-11-24T14:03:24;9.40;99.90
51637;DHT22;37713;53.254;6.460;2022-11-24T14:05:52;9.30;99.90
51637;DHT22;37713;53.254;6.460;2022-11-24T14:08:41;9.30;99.90
51637;DHT22;37713;53.254;6.460;2022-11-24T14:11:13;9.30;99.90
51637;DHT22;37713;53.254;6.460;2022-11-24T14:13:39;9.30;99.90
51637;DHT22;37713;53.254;6.460;2022-11-24T14:18:36;9.20;99.90
51637;DHT22;37713;53.254;6.460;2022-11-24T14:21:36;9.20;99.90
51637;DHT22;37713;53.254;6.460;2022-11-24T14:24:32;9.00;99.90
51637;DHT22;37713;53.254;6.460;2022-11-24T14:26:57;9.10;99.90
51637;DHT22;37713;53.254;6.460;2022-11-24T14:29:24;9.00;99.90
51637;DHT22;37713;53.254;6.460;2022-11-24T14:32:00;9.00;99.90
51637;DHT22;37713;53.254;6.460;2022-11-24T14:34:29;8.90;99.90
51637;DHT22;37713;53.254;6.460;2022-11-24T14:36:56;8.80;99.90
51637;DHT22;37713;53.254;6.460;2022-11-24T14:39:24;8.80;99.90
51637;DHT22;37713;53.254;6.460;2022-11-24T14:42:25;8.80;99.90
51637;DHT22;37713;53.254;6.460;2022-11-24T14:44:56;8.70;99.90
51637;DHT22;37713;53.254;6.460;2022-11-24T14:47:27;8.60;99.90
51637;DHT22;37713;53.254;6.460;2022-11-24T14:49:55;8.50;99.90
51637;DHT22;37713;53.254;6.460;2022-11-24T14:52:22;8.50;99.90
51637;DHT22;37713;53.254;6.460;2022-11-24T14:54:56;8.50;99.90
51637;DHT22;37713;53.254;6.460;2022-11-24T14:57:29;8.50;99.90
51637;DHT22;37713;53.254;6.460;2022-11-24T15:02:40;8.40;99.90
51637;DHT22;37713;53.254;6.460;2022-11-24T15:05:07;8.30;99.90
51637;DHT22;37713;53.254;6.460;2022-11-24T15:07:35;8.30;99.90
51637;DHT22;37713;53.254;6.460;2022-11-24T15:10:04;8.30;99.90
51637;DHT22;37713;53.254;6.460;2022-11-24T15:12:40;8.30;99.90
51637;DHT22;37713;53.254;6.460;2022-11-24T15:17:57;8.00;99.90
51637;DHT22;37713;53.254;6.460;2022-11-24T15:28:35;7.90;99.90
51637;DHT22;37713;53.254;6.460;2022-11-24T15:31:05;7.90;99.90
51637;DHT22;37713;53.254;6.460;2022-11-24T15:33:34;7.90;99.90
51637;DHT22;37713;53.254;6.460;2022-11-24T15:36:00;7.80;99.90
51637;DHT22;37713;53.254;6.460;2022-11-24T15:38:26;7.70;99.90
51637;DHT22;37713;53.254;6.460;2022-11-24T15:40:53;7.70;99.90
51637;DHT22;37713;53.254;6.460;2022-11-24T15:45:59;7.50;99.90
51637;DHT22;37713;53.254;6.460;2022-11-24T15:48:25;7.50;99.90
51637;DHT22;37713;53.254;6.460;2022-11-24T15:50:52;7.50;99.90
51637;DHT22;37713;53.254;6.460;2022-11-24T15:53:24;7.40;99.90
51637;DHT22;37713;53.254;6.460;2022-11-24T15:55:52;7.30;99.90
51637;DHT22;37713;53.254;6.460;2022-11-24T15:58:20;7.30;99.90
51637;DHT22;37713;53.254;6.460;2022-11-24T16:00:46;7.10;99.90
51637;DHT22;37713;53.254;6.460;2022-11-24T16:03:12;7.10;99.90
51637;DHT22;37713;53.254;6.460;2022-11-24T16:05:38;7.00;99.90
51637;DHT22;37713;53.254;6.460;2022-11-24T16:08:05;6.90;99.90
51637;DHT22;37713;53.254;6.460;2022-11-24T16:10:33;7.00;99.90
51637;DHT22;37713;53.254;6.460;2022-11-24T16:13:00;6.90;99.90
51637;DHT22;37713;53.254;6.460;2022-11-24T16:15:25;6.80;99.90
51637;DHT22;37713;53.254;6.460;2022-11-24T16:17:52;6.70;99.90
51637;DHT22;37713;53.254;6.460;2022-11-24T16:20:18;6.60;99.90
51637;DHT22;37713;53.254;6.460;2022-11-24T16:22:43;6.60;99.90
51637;DHT22;37713;53.254;6.460;2022-11-24T16:25:10;6.60;99.90
51637;DHT22;37713;53.254;6.460;2022-11-24T16:27:36;6.70;99.90
51637;DHT22;37713;53.254;6.460;2022-11-24T16:30:02;6.50;99.90
51637;DHT22;37713;53.254;6.460;2022-11-24T16:32:27;6.70;99.90
51637;DHT22;37713;53.254;6.460;2022-11-24T16:34:53;6.50;99.90
51637;DHT22;37713;53.254;6.460;2022-11-24T16:37:19;6.60;99.90
51637;DHT22;37713;53.254;6.460;2022-11-24T16:39:48;6.60;99.90
51637;DHT22;37713;53.254;6.460;2022-11-24T16:42:14;6.80;99.90
51637;DHT22;37713;53.254;6.460;2022-11-24T16:44:40;6.60;99.90
51637;DHT22;37713;53.254;6.460;2022-11-24T16:47:06;6.70;99.90
51637;DHT22;37713;53.254;6.460;2022-11-24T16:49:31;6.70;99.90
51637;DHT22;37713;53.254;6.460;2022-11-24T16:51:57;6.70;99.90
51637;DHT22;37713;53.254;6.460;2022-11-24T16:54:23;6.60;99.90
51637;DHT22;37713;53.254;6.460;2022-11-24T16:56:50;6.60;99.90
51637;DHT22;37713;53.254;6.460;2022-11-24T16:59:16;6.50;99.90
51637;DHT22;37713;53.254;6.460;2022-11-24T17:01:43;6.60;99.90
51637;DHT22;37713;53.254;6.460;2022-11-24T17:04:11;6.50;99.90
51637;DHT22;37713;53.254;6.460;2022-11-24T17:06:38;6.40;99.90
51637;DHT22;37713;53.254;6.460;2022-11-24T17:09:03;6.30;99.90
51637;DHT22;37713;53.254;6.460;2022-11-24T17:11:30;6.30;99.90
51637;DHT22;37713;53.254;6.460;2022-11-24T17:13:56;6.20;99.90
51637;DHT22;37713;53.254;6.460;2022-11-24T17:16:23;6.20;99.90
51637;DHT22;37713;53.254;6.460;2022-11-24T17:18:50;6.30;99.90
51637;DHT22;37713;53.254;6.460;2022-11-24T17:21:21;6.20;99.90
51637;DHT22;37713;53.254;6.460;2022-11-24T17:23:55;6.10;99.90
51637;DHT22;37713;53.254;6.460;2022-11-24T17:26:21;6.00;99.90
51637;DHT22;37713;53.254;6.460;2022-11-24T17:28:47;6.00;99.90
51637;DHT22;37713;53.254;6.460;2022-11-24T17:31:29;5.90;99.90
51637;DHT22;37713;53.254;6.460;2022-11-24T17:33:57;6.00;99.90
51637;DHT22;37713;53.254;6.460;2022-11-24T17:36:24;5.90;99.90
51637;DHT22;37713;53.254;6.460;2022-11-24T17:38:50;6.10;99.90
51637;DHT22;37713;53.254;6.460;2022-11-24T17:41:17;6.10;99.90
51637;DHT22;37713;53.254;6.460;2022-11-24T17:43:50;5.90;99.90
51637;DHT22;37713;53.254;6.460;2022-11-24T17:46:16;6.00;99.90
51637;DHT22;37713;53.254;6.460;2022-11-24T17:48:41;5.90;99.90